Musselfork, Missouri
Current Conditions -  °F | °C
As of 3:15 AM on Sunday 21 Dec 2014 (Local Time) from KVER Reporting Station
Overcast Overcast  
Wind Chill: 42°   Ceiling: 2200
Heat Index: 42°   Visibility: 10mi
Dew Point: 37°   Wind: 3mph
Humidity: 82%   Direction: 210°SSW
Pressure: 30.14"   Gusts: NA
Location:  39.4953°N, 92.9281°W
Report Text: KVER 210915Z AUTO 21003KT 10SM OVC022 06/03 A3014 RMK AO2 T00550026
Loading
Personal Weather Stations






























Interactive Weather Map New forecast layout! Learn more

10-Day Weather Forecast

Advertisements
Track Severe Weather on mobile